createdAt,value
2019-01-18T00:00:59.030Z,6.90
2019-01-18T00:03:43.714Z,7.40
2019-01-18T00:06:29.044Z,7.10
2019-01-18T00:09:13.830Z,7.37
2019-01-18T00:11:58.465Z,6.63
2019-01-18T00:14:43.173Z,6.57
2019-01-18T00:17:28.144Z,6.57
2019-01-18T00:20:14.215Z,5.43
2019-01-18T00:22:59.340Z,5.67
2019-01-18T00:25:44.581Z,5.60
2019-01-18T00:28:29.568Z,5.47
2019-01-18T00:31:15.101Z,6.07
2019-01-18T00:33:59.969Z,6.67
2019-01-18T00:36:44.979Z,6.50
2019-01-18T00:39:29.529Z,6.70
2019-01-18T00:42:14.073Z,6.97
2019-01-18T00:44:58.784Z,5.80
2019-01-18T00:47:43.814Z,6.47
2019-01-18T00:50:28.661Z,6.13
2019-01-18T00:53:13.805Z,5.87
2019-01-18T00:55:58.423Z,6.37
2019-01-18T00:58:43.502Z,5.90
2019-01-18T01:01:28.430Z,6.17
2019-01-18T01:04:13.505Z,6.40
2019-01-18T01:06:58.724Z,5.60
2019-01-18T01:09:43.863Z,5.97
2019-01-18T01:12:28.273Z,5.97
2019-01-18T01:15:16.854Z,5.50
2019-01-18T01:18:01.470Z,5.90
2019-01-18T01:20:46.025Z,5.90
2019-01-18T01:23:30.750Z,5.63
2019-01-18T01:26:15.648Z,6.07
2019-01-18T01:29:00.186Z,5.90
2019-01-18T01:31:44.700Z,6.00
2019-01-18T01:34:29.442Z,5.73
2019-01-18T01:37:14.564Z,6.70
2019-01-18T01:39:59.597Z,6.50
2019-01-18T01:42:44.206Z,6.70
2019-01-18T01:45:29.155Z,6.40
2019-01-18T01:48:13.818Z,6.20
2019-01-18T01:50:58.658Z,5.90
2019-01-18T01:53:43.424Z,6.00
2019-01-18T01:56:28.354Z,5.27
2019-01-18T01:59:13.260Z,5.50
2019-01-18T02:01:58.274Z,5.33
2019-01-18T02:04:42.699Z,5.53
2019-01-18T02:07:27.347Z,6.10
2019-01-18T02:10:14.275Z,6.53
2019-01-18T02:12:58.948Z,5.87
2019-01-18T02:15:43.434Z,6.60
2019-01-18T02:18:28.165Z,6.30
2019-01-18T02:21:12.701Z,6.53
2019-01-18T02:23:57.362Z,5.83
2019-01-18T02:26:42.084Z,6.33
2019-01-18T02:29:27.026Z,6.57
2019-01-18T02:32:11.709Z,6.57
2019-01-18T02:34:56.778Z,6.77
2019-01-18T02:37:41.668Z,6.13
2019-01-18T02:40:26.529Z,6.70
2019-01-18T02:43:11.515Z,6.33
2019-01-18T02:45:56.260Z,6.37
2019-01-18T02:48:41.072Z,6.73
2019-01-18T02:51:25.533Z,6.70
2019-01-18T02:54:10.114Z,5.70
2019-01-18T02:56:54.712Z,5.97
2019-01-18T02:59:39.597Z,5.77
2019-01-18T03:02:24.264Z,6.10
2019-01-18T03:05:11.069Z,5.73
2019-01-18T03:07:55.897Z,6.47
2019-01-18T03:10:40.774Z,6.60
2019-01-18T03:13:25.476Z,6.03
2019-01-18T03:16:09.843Z,5.90
2019-01-18T03:18:54.579Z,5.93
2019-01-18T03:21:39.759Z,6.10
2019-01-18T03:24:24.658Z,6.53
2019-01-18T03:27:09.253Z,6.03
2019-01-18T03:29:54.059Z,7.13
2019-01-18T03:32:38.900Z,7.33
2019-01-18T03:35:23.835Z,7.17
2019-01-18T03:38:09.041Z,7.73
2019-01-18T03:40:53.417Z,7.63
2019-01-18T03:43:38.394Z,7.97
2019-01-18T03:46:22.939Z,7.33
2019-01-18T03:49:07.535Z,8.20
2019-01-18T03:51:52.015Z,7.93
2019-01-18T03:54:36.562Z,7.90
2019-01-18T03:57:21.152Z,8.33
2019-01-18T04:00:12.642Z,8.20
2019-01-18T04:02:57.356Z,8.70
2019-01-18T04:05:42.338Z,7.67
2019-01-18T04:08:27.304Z,8.53
2019-01-18T04:11:11.845Z,8.30
2019-01-18T04:13:56.318Z,7.70
2019-01-18T04:16:41.191Z,8.17
2019-01-18T04:19:26.114Z,8.70
2019-01-18T04:22:11.309Z,7.87
2019-01-18T04:24:55.767Z,8.50
2019-01-18T04:27:40.493Z,8.57
2019-01-18T04:30:32.977Z,8.70
2019-01-18T04:33:11.883Z,8.43
2019-01-18T04:35:56.664Z,8.10
2019-01-18T04:38:41.540Z,9.50
2019-01-18T04:41:26.340Z,9.57
2019-01-18T04:44:11.249Z,9.13
2019-01-18T04:46:55.992Z,9.43
2019-01-18T04:49:40.923Z,9.20
2019-01-18T04:52:26.097Z,10.53
2019-01-18T04:55:11.977Z,10.13
2019-01-18T04:57:56.820Z,9.63
2019-01-18T05:00:42.120Z,9.50
2019-01-18T05:03:27.126Z,9.93
2019-01-18T05:06:11.657Z,10.90
2019-01-18T05:08:56.618Z,10.10
2019-01-18T05:11:41.314Z,10.40
2019-01-18T05:14:26.112Z,10.17
2019-01-18T05:17:10.859Z,9.87
2019-01-18T05:19:55.753Z,11.47
2019-01-18T05:22:40.362Z,11.20
2019-01-18T05:25:25.367Z,12.97
2019-01-18T05:28:09.877Z,13.23
2019-01-18T05:30:54.522Z,15.27
2019-01-18T05:33:39.117Z,13.37
2019-01-18T05:36:24.049Z,12.90
2019-01-18T05:39:08.882Z,13.07
2019-01-18T05:41:53.794Z,12.40
2019-01-18T05:44:38.354Z,13.20
2019-01-18T05:47:23.092Z,12.63
2019-01-18T05:50:18.758Z,11.40
2019-01-18T05:53:04.584Z,11.63
2019-01-18T05:55:49.329Z,12.30
2019-01-18T05:58:34.387Z,12.87
2019-01-18T06:01:19.497Z,12.53
2019-01-18T06:04:04.562Z,13.20
2019-01-18T06:06:49.689Z,13.20
2019-01-18T06:09:34.155Z,12.70
2019-01-18T06:12:18.898Z,13.43
2019-01-18T06:15:06.068Z,12.70
2019-01-18T06:17:51.064Z,12.57
2019-01-18T06:20:36.099Z,13.90
2019-01-18T06:23:20.504Z,12.90
2019-01-18T06:26:05.138Z,12.47
2019-01-18T06:28:49.822Z,12.90
2019-01-18T06:31:34.759Z,12.47
2019-01-18T06:34:19.301Z,12.67
2019-01-18T06:37:04.154Z,12.23
2019-01-18T06:39:49.086Z,12.20
2019-01-18T06:42:34.238Z,13.10
2019-01-18T06:45:28.212Z,13.50
2019-01-18T06:48:14.927Z,13.03
2019-01-18T06:50:59.595Z,13.00
2019-01-18T06:53:44.203Z,13.17
2019-01-18T06:56:29.322Z,13.00
2019-01-18T06:59:14.074Z,13.33
2019-01-18T07:01:59.110Z,13.03
2019-01-18T07:04:43.503Z,13.90
2019-01-18T07:07:27.998Z,13.80
2019-01-18T07:10:20.723Z,12.60
2019-01-18T07:13:02.319Z,12.17
2019-01-18T07:15:47.282Z,12.70
2019-01-18T07:18:31.849Z,12.70
2019-01-18T07:21:16.503Z,13.13
2019-01-18T07:24:01.332Z,13.27
2019-01-18T07:26:46.112Z,12.90
2019-01-18T07:29:31.303Z,12.63
2019-01-18T07:32:16.794Z,13.60
2019-01-18T07:35:01.741Z,12.70
2019-01-18T07:37:46.391Z,13.20
2019-01-18T07:40:31.312Z,13.27
2019-01-18T07:43:16.287Z,13.47
2019-01-18T07:46:00.913Z,13.87
2019-01-18T07:48:45.456Z,14.63
2019-01-18T07:51:30.629Z,14.83
2019-01-18T07:54:15.562Z,14.83
2019-01-18T07:57:00.341Z,15.30
2019-01-18T07:59:45.196Z,15.17
2019-01-18T08:02:29.823Z,13.93
2019-01-18T08:05:14.996Z,14.37
2019-01-18T08:08:00.174Z,14.20
2019-01-18T08:10:44.918Z,13.93
2019-01-18T08:13:29.499Z,14.47
2019-01-18T08:16:14.603Z,13.50
2019-01-18T08:18:59.257Z,14.63
2019-01-18T08:21:44.044Z,13.97
2019-01-18T08:24:28.689Z,15.27
2019-01-18T08:27:13.352Z,16.37
2019-01-18T08:29:57.948Z,16.20
2019-01-18T08:32:42.624Z,16.33
2019-01-18T08:35:27.547Z,17.17
2019-01-18T08:38:12.458Z,19.00
2019-01-18T08:40:57.035Z,19.60
2019-01-18T08:43:41.670Z,20.97
2019-01-18T08:46:26.398Z,21.23
2019-01-18T08:49:11.444Z,19.50
2019-01-18T08:51:56.119Z,21.20
2019-01-18T08:54:40.803Z,20.00
2019-01-18T08:57:25.385Z,19.93
2019-01-18T09:00:16.087Z,18.53
2019-01-18T09:03:01.028Z,17.80
2019-01-18T09:05:45.742Z,17.80
2019-01-18T09:08:30.668Z,19.60
2019-01-18T09:11:15.213Z,18.37
2019-01-18T09:14:00.055Z,18.30
2019-01-18T09:16:44.673Z,18.90
2019-01-18T09:19:29.127Z,18.53
2019-01-18T09:22:13.557Z,19.43
2019-01-18T09:24:58.429Z,18.70
2019-01-18T09:27:43.438Z,18.87
2019-01-18T09:30:31.643Z,17.87
2019-01-18T09:33:16.607Z,18.03
2019-01-18T09:36:01.720Z,18.33
2019-01-18T09:38:46.698Z,18.17
2019-01-18T09:41:31.029Z,18.63
2019-01-18T09:44:15.702Z,17.70
2019-01-18T09:47:00.258Z,19.13
2019-01-18T09:49:45.563Z,18.77
2019-01-18T09:52:30.464Z,18.97
2019-01-18T09:55:15.387Z,18.83
2019-01-18T09:58:00.396Z,19.33
2019-01-18T10:00:45.291Z,17.67
2019-01-18T10:03:29.814Z,18.60
2019-01-18T10:06:14.414Z,18.50
2019-01-18T10:08:58.949Z,18.60
2019-01-18T10:11:43.534Z,17.70
2019-01-18T10:14:28.192Z,17.70
2019-01-18T10:17:12.699Z,16.63
2019-01-18T10:19:57.416Z,16.27
2019-01-18T10:22:43.344Z,16.67
2019-01-18T10:25:28.150Z,16.43
2019-01-18T10:28:12.822Z,15.40
2019-01-18T10:30:57.662Z,15.77
2019-01-18T10:33:42.286Z,14.80
2019-01-18T10:36:26.913Z,15.00
2019-01-18T10:39:11.445Z,15.07
2019-01-18T10:41:56.099Z,14.93
2019-01-18T10:44:40.847Z,14.70
2019-01-18T10:47:25.638Z,15.40
2019-01-18T10:50:13.226Z,15.23
2019-01-18T10:52:58.209Z,14.13
2019-01-18T10:55:42.923Z,14.50
2019-01-18T10:58:27.693Z,14.03
2019-01-18T11:01:12.749Z,15.40
2019-01-18T11:03:57.819Z,14.40
2019-01-18T11:06:42.943Z,15.30
2019-01-18T11:09:27.425Z,14.57
2019-01-18T11:12:12.438Z,15.50
2019-01-18T11:14:57.059Z,14.60
2019-01-18T11:17:42.064Z,14.10
2019-01-18T11:20:42.265Z,14.03
2019-01-18T11:23:27.199Z,13.90
2019-01-18T11:26:11.731Z,14.37
2019-01-18T11:28:56.829Z,13.03
2019-01-18T11:31:41.945Z,13.73
2019-01-18T11:34:27.001Z,13.60
2019-01-18T11:37:12.085Z,13.87
2019-01-18T11:39:56.962Z,13.10
2019-01-18T11:42:41.543Z,13.27
2019-01-18T11:45:26.539Z,12.87
2019-01-18T11:48:11.157Z,14.83
2019-01-18T11:50:56.257Z,15.13
2019-01-18T11:53:41.518Z,14.40
2019-01-18T11:56:26.141Z,14.80
2019-01-18T11:59:11.142Z,15.83
2019-01-18T12:01:55.924Z,14.43
2019-01-18T12:04:40.467Z,13.47
2019-01-18T12:07:25.062Z,13.20
2019-01-18T12:10:12.718Z,12.73
2019-01-18T12:12:57.569Z,13.83
2019-01-18T12:15:42.412Z,12.80
2019-01-18T12:18:27.106Z,13.60
2019-01-18T12:21:12.328Z,12.53
2019-01-18T12:23:57.339Z,12.57
2019-01-18T12:26:42.284Z,12.10
2019-01-18T12:29:27.271Z,11.83
2019-01-18T12:32:12.418Z,11.27
2019-01-18T12:34:57.401Z,11.90
2019-01-18T12:37:42.982Z,11.43
2019-01-18T12:40:27.797Z,11.63
2019-01-18T12:43:13.063Z,9.63
2019-01-18T12:45:58.219Z,9.73
2019-01-18T12:48:43.163Z,10.53
2019-01-18T12:51:28.254Z,9.27
2019-01-18T12:54:13.312Z,10.00
2019-01-18T12:56:58.365Z,10.07
2019-01-18T12:59:43.081Z,9.50
2019-01-18T13:02:27.894Z,9.70
2019-01-18T13:05:15.512Z,8.70
2019-01-18T13:08:00.585Z,8.93
2019-01-18T13:10:45.743Z,8.43
2019-01-18T13:13:30.932Z,8.47
2019-01-18T13:16:18.233Z,8.50
2019-01-18T13:19:03.041Z,7.37
2019-01-18T13:21:47.972Z,7.70
2019-01-18T13:24:32.744Z,7.73
2019-01-18T13:27:17.706Z,7.47
2019-01-18T13:30:06.142Z,7.33
2019-01-18T13:32:50.781Z,6.60
2019-01-18T13:35:35.886Z,5.90
2019-01-18T13:38:20.498Z,6.13
2019-01-18T13:41:04.942Z,6.20
2019-01-18T13:43:50.254Z,5.90
2019-01-18T13:46:35.311Z,6.00
2019-01-18T13:49:20.553Z,5.97
2019-01-18T13:52:05.358Z,5.90
2019-01-18T13:54:50.114Z,5.03
2019-01-18T13:57:34.716Z,5.57
2019-01-18T14:00:19.699Z,5.30
2019-01-18T14:03:04.636Z,5.30
2019-01-18T14:05:49.360Z,4.93
2019-01-18T14:08:34.373Z,5.10
2019-01-18T14:11:19.263Z,4.97
2019-01-18T14:14:04.461Z,4.33
2019-01-18T14:16:49.159Z,4.53
2019-01-18T14:19:34.272Z,4.50
2019-01-18T14:22:19.232Z,4.73
2019-01-18T14:25:05.963Z,4.57
2019-01-18T14:27:51.092Z,4.10
2019-01-18T14:30:36.172Z,4.27
2019-01-18T14:33:21.364Z,3.70
2019-01-18T14:36:06.443Z,4.23
2019-01-18T14:38:51.218Z,4.40
2019-01-18T14:41:35.730Z,4.30
2019-01-18T14:44:20.772Z,4.07
2019-01-18T14:47:05.463Z,4.20
2019-01-18T14:49:50.426Z,4.70
2019-01-18T14:52:35.126Z,3.77
2019-01-18T14:55:20.323Z,3.60
2019-01-18T14:58:07.080Z,3.80
2019-01-18T15:00:52.098Z,3.30
2019-01-18T15:03:37.087Z,3.40
2019-01-18T15:06:21.902Z,3.40
2019-01-18T15:09:09.780Z,3.10
2019-01-18T15:11:54.323Z,3.37
2019-01-18T15:14:39.285Z,3.37
2019-01-18T15:17:24.379Z,3.70
2019-01-18T15:20:15.059Z,3.80
2019-01-18T15:22:59.840Z,3.40
2019-01-18T15:25:44.728Z,3.50
2019-01-18T15:28:29.320Z,3.63
2019-01-18T15:31:14.286Z,3.57
2019-01-18T15:33:59.529Z,3.63
2019-01-18T15:36:44.343Z,3.70
2019-01-18T15:39:29.150Z,3.83
2019-01-18T15:42:14.072Z,4.00
2019-01-18T15:44:59.376Z,3.90
2019-01-18T15:47:44.257Z,4.13
2019-01-18T15:50:31.297Z,4.17
2019-01-18T15:53:16.395Z,4.80
2019-01-18T15:56:01.404Z,4.97
2019-01-18T15:58:46.003Z,7.97
2019-01-18T16:01:30.944Z,7.93
2019-01-18T16:04:15.650Z,7.30
2019-01-18T16:07:00.507Z,6.77
2019-01-18T16:09:45.548Z,6.47
2019-01-18T16:12:30.843Z,6.70
2019-01-18T16:15:28.431Z,6.97
2019-01-18T16:18:16.963Z,7.07
2019-01-18T16:21:02.667Z,6.77
2019-01-18T16:23:47.607Z,6.37
2019-01-18T16:26:32.841Z,6.87
2019-01-18T16:29:17.704Z,7.00
2019-01-18T16:32:03.029Z,7.00
2019-01-18T16:34:47.918Z,6.60
2019-01-18T16:37:33.073Z,6.40
2019-01-18T16:40:29.759Z,7.63
2019-01-18T16:43:24.503Z,6.73
2019-01-18T16:46:09.580Z,6.33
2019-01-18T16:48:54.625Z,6.63
2019-01-18T16:51:39.671Z,7.60
2019-01-18T16:54:24.560Z,6.67
2019-01-18T16:57:10.121Z,6.50
2019-01-18T16:59:55.123Z,7.47
2019-01-18T17:02:40.124Z,8.43
2019-01-18T17:05:25.130Z,9.10
2019-01-18T17:08:10.239Z,9.47
2019-01-18T17:10:55.375Z,9.50
2019-01-18T17:13:40.602Z,11.17
2019-01-18T17:16:25.662Z,10.50
2019-01-18T17:19:11.111Z,10.77
2019-01-18T17:21:55.831Z,12.03
2019-01-18T17:24:40.912Z,11.83
2019-01-18T17:27:25.950Z,12.70
2019-01-18T17:30:13.701Z,11.40
2019-01-18T17:32:58.662Z,12.00
2019-01-18T17:35:55.833Z,12.23
2019-01-18T17:39:03.135Z,14.33
2019-01-18T17:42:03.818Z,12.57
2019-01-18T17:45:01.475Z,15.93
2019-01-18T17:48:05.055Z,14.70
2019-01-18T17:51:26.905Z,15.10
2019-01-18T17:54:21.531Z,14.13
2019-01-18T17:57:37.529Z,15.27
2019-01-18T18:00:35.363Z,16.50
2019-01-18T18:03:36.658Z,16.93
2019-01-18T18:06:34.763Z,15.40
2019-01-18T18:09:23.116Z,17.37
2019-01-18T18:12:11.698Z,17.53
2019-01-18T18:15:20.096Z,19.10
2019-01-18T18:18:25.467Z,18.53
2019-01-18T18:21:34.919Z,16.30
2019-01-18T18:24:29.421Z,17.40
2019-01-18T18:27:34.587Z,20.48
2019-01-18T18:30:23.547Z,25.07
2019-01-18T18:33:28.923Z,20.17
2019-01-18T18:36:20.491Z,17.60
2019-01-18T18:39:11.681Z,17.03
2019-01-18T18:42:12.049Z,18.07
2019-01-18T18:45:32.321Z,17.67
2019-01-18T18:48:40.367Z,16.23
2019-01-18T18:52:02.507Z,16.57
2019-01-18T18:54:57.137Z,16.83
2019-01-18T18:58:04.182Z,16.47
2019-01-18T19:00:59.014Z,17.93
2019-01-18T19:04:13.423Z,16.60
2019-01-18T19:07:18.802Z,15.47
2019-01-18T19:10:39.390Z,16.40
2019-01-18T19:13:28.027Z,15.73
2019-01-18T19:16:34.729Z,16.70
2019-01-18T19:19:35.354Z,16.03
2019-01-18T19:22:33.412Z,16.13
2019-01-18T19:25:31.328Z,17.77
2019-01-18T19:28:42.573Z,17.57
2019-01-18T19:31:46.326Z,15.87
2019-01-18T19:34:47.090Z,15.20
2019-01-18T19:37:44.454Z,14.73
2019-01-18T19:40:33.137Z,14.07
2019-01-18T19:43:41.789Z,13.93
2019-01-18T19:46:41.963Z,14.30
2019-01-18T19:49:48.785Z,13.03
2019-01-18T19:52:52.967Z,13.57
2019-01-18T19:55:44.807Z,11.63
2019-01-18T19:58:39.392Z,12.53
2019-01-18T20:01:28.042Z,12.73
2019-01-18T20:04:37.988Z,14.00
2019-01-18T20:07:29.522Z,13.47
2019-01-18T20:10:38.971Z,11.63
2019-01-18T20:13:42.705Z,12.17
2019-01-18T20:16:43.494Z,12.43
2019-01-18T20:19:31.966Z,12.17
2019-01-18T20:22:32.622Z,14.37
2019-01-18T20:25:21.490Z,15.97
2019-01-18T20:28:25.592Z,15.70
2019-01-18T20:31:26.275Z,13.13
2019-01-18T20:34:18.477Z,11.03
2019-01-18T20:37:07.438Z,11.30
2019-01-18T20:40:05.092Z,11.47
2019-01-18T20:42:53.936Z,12.00
2019-01-18T20:46:10.743Z,11.00
2019-01-18T20:49:14.744Z,10.53
2019-01-18T20:52:27.173Z,11.43
2019-01-18T20:55:18.282Z,10.67
2019-01-18T20:58:15.906Z,11.97
2019-01-18T21:01:34.711Z,11.03
2019-01-18T21:04:32.896Z,10.00
2019-01-18T21:07:35.116Z,10.13
2019-01-18T21:10:32.885Z,9.87
2019-01-18T21:13:24.387Z,10.97
2019-01-18T21:16:19.073Z,13.00
2019-01-18T21:19:19.823Z,14.30
2019-01-18T21:22:31.201Z,15.23
2019-01-18T21:25:36.442Z,13.27
2019-01-18T21:28:43.284Z,10.50
2019-01-18T21:31:40.466Z,9.43
2019-01-18T21:34:37.666Z,9.83
2019-01-18T21:37:26.336Z,9.80
2019-01-18T21:40:36.187Z,9.10
2019-01-18T21:43:24.636Z,9.67
2019-01-18T21:46:33.092Z,9.87
2019-01-18T21:49:24.878Z,9.90
2019-01-18T21:52:33.260Z,10.20
2019-01-18T21:55:33.454Z,10.13
2019-01-18T21:58:24.711Z,11.00
2019-01-18T22:01:25.328Z,11.93
2019-01-18T22:04:13.831Z,11.40
2019-01-18T22:07:13.951Z,10.07
2019-01-18T22:10:14.771Z,9.40
2019-01-18T22:13:18.556Z,10.67
2019-01-18T22:16:19.274Z,9.60
2019-01-18T22:19:07.879Z,9.23
2019-01-18T22:22:05.397Z,10.83
2019-01-18T22:25:17.018Z,11.10
2019-01-18T22:28:20.810Z,10.23
2019-01-18T22:31:25.871Z,9.30
2019-01-18T22:34:14.529Z,8.87
2019-01-18T22:37:25.712Z,8.50
2019-01-18T22:40:40.067Z,7.97
2019-01-18T22:44:01.865Z,7.47
2019-01-18T22:46:50.568Z,7.60
2019-01-18T22:49:47.953Z,6.77
2019-01-18T22:52:36.825Z,7.23
2019-01-18T22:55:31.482Z,6.37
2019-01-18T22:58:22.938Z,7.13
2019-01-18T23:01:32.971Z,6.53
2019-01-18T23:04:27.412Z,6.37
2019-01-18T23:07:19.135Z,6.70
2019-01-18T23:10:27.128Z,6.27
2019-01-18T23:13:24.590Z,6.23
2019-01-18T23:16:35.606Z,6.30
2019-01-18T23:19:27.312Z,6.13
2019-01-18T23:22:18.827Z,5.70
2019-01-18T23:25:16.450Z,5.43
2019-01-18T23:28:07.957Z,5.63
2019-01-18T23:30:59.636Z,5.53
2019-01-18T23:33:48.291Z,5.40
2019-01-18T23:36:40.016Z,5.50
2019-01-18T23:39:31.556Z,5.93
2019-01-18T23:42:31.791Z,4.87
2019-01-18T23:45:47.470Z,5.20
2019-01-18T23:48:38.844Z,5.33
2019-01-18T23:51:30.407Z,6.07
2019-01-18T23:54:34.330Z,5.50
2019-01-18T23:57:22.967Z,5.50
